Sacramento, California
Traffic Map
Current Weather Conditions
Sacramento, California
Clear
Clear
35°
Feels Like: 35°
Wind Chill: 35° Ceiling: Unl
Heat Index: 35° Visibility: 10mi
Dew Point: Wind: 5mph
Humidity: 14% Direction: 270° (W)
Pressure: 29.81in Gusts: 0mph
Raw Report DataKSAC 272153Z 27004KT 10SM CLR 35/04 A2981 RMK AO2 SLP094 T03500039
Traffic Incident Summary
Active as of:
Severity:
Category:
InformationThere was an issue retrieving the traffic information for this location. Please try a different location or try again shortly.
Advertisements
Track Severe Weather on mobile